Nearby METAR Reports

 

KMLP - Mullan Pass
Updated: Mon, 22-Jul-2019 6:53pm PDT
Clear
Clear
 Wind from ESE
Wind: ESE 6 mph , 9 km/h
Temperature: 66°F , 19°C
Dew Point: 46°F , 8°C
Humidity: 49%
Barometer: 30.21 inHg , 1023 hPa
Clouds: Clear
Visibility: 10 miles , 16 km
2019/07/23 01:53 KMLP 230153Z AUTO 12005KT 10SM CLR 19/08 A3021 RMK AO2 SLP131 T01940083
KCOE - Coeur d Alene
Updated: Mon, 22-Jul-2019 6:56pm PDT
Clear
Clear
 Wind from NNE
Wind: NNE 15 mph , 24 km/h
Temperature: 86°F , 30°C
Dew Point: 54°F , 12°C
Humidity: 33%
Barometer: 29.94 inHg , 1013.9 hPa
Clouds: Clear
Visibility: 10 miles , 16 km
2019/07/23 01:56 KCOE 230156Z AUTO 02013KT 10SM CLR 30/12 A2994 RMK AO2 SLP132 T03000117
 
KLWS - Lewiston
Updated: Mon, 22-Jul-2019 6:56pm PDT
Clear
Clear
 Wind from WNW
Wind: WNW 13 mph , 20 km/h
Temperature: 93°F , 34°C
Dew Point: 45°F , 7°C
Humidity: 19%
Barometer: 29.88 inHg , 1011.9 hPa
Clouds: Clear
Visibility: 10 miles , 16 km
2019/07/23 01:56 KLWS 230156Z 30011KT 10SM CLR 34/07 A2988 RMK AO2 SLP106 T03440072
KGEG - Spokane Intl
Updated: Mon, 22-Jul-2019 6:53pm PDT
Partly Cloudy
Partly Cloudy
 Wind from NNE
Wind: NNE 6 mph , 9 km/h
Temperature: 91°F , 33°C
Dew Point: 50°F , 10°C
Humidity: 24%
Barometer: 29.93 inHg , 1013.5 hPa
Clouds: Partly Cloudy
Visibility: 10 miles , 16 km
Cloud details: Few Clouds 10000 ft
Few Clouds 13000 ft
Few Clouds 20000 ft
Partly Cloudy 24000 ft
2019/07/23 01:53 KGEG 230153Z 02005KT 10SM FEW100 FEW130 FEW200 SCT240 33/10 A2993 RMK AO2 SLP114 VIRGA W ACC W T03330100